createdAt,value
2019-05-03T00:00:46.405Z,16.98
2019-05-03T00:03:16.402Z,17.07
2019-05-03T00:05:52.496Z,17.15
2019-05-03T00:08:22.282Z,17.08
2019-05-03T00:10:51.975Z,17.13
2019-05-03T00:13:21.956Z,16.92
2019-05-03T00:16:13.395Z,16.99
2019-05-03T00:18:43.174Z,17.09
2019-05-03T00:21:13.070Z,17.07
2019-05-03T00:23:42.741Z,17.11
2019-05-03T00:26:12.401Z,17.16
2019-05-03T00:28:42.644Z,17.13
2019-05-03T00:31:12.806Z,17.15
2019-05-03T00:33:44.506Z,17.16
2019-05-03T00:36:26.792Z,17.24
2019-05-03T00:39:01.950Z,17.02
2019-05-03T00:41:32.099Z,17.10
2019-05-03T00:44:02.221Z,16.97
2019-05-03T00:46:32.762Z,16.92
2019-05-03T00:49:03.786Z,16.93
2019-05-03T00:51:33.525Z,16.89
2019-05-03T00:54:03.141Z,16.92
2019-05-03T00:56:32.798Z,16.82
2019-05-03T00:59:02.448Z,16.94
2019-05-03T01:01:32.193Z,16.86
2019-05-03T01:04:01.937Z,16.96
2019-05-03T01:06:31.900Z,16.92
2019-05-03T01:09:02.659Z,16.93
2019-05-03T01:11:32.511Z,17.09
2019-05-03T01:14:02.646Z,17.02
2019-05-03T01:16:32.568Z,17.19
2019-05-03T01:19:02.669Z,17.11
2019-05-03T01:21:32.618Z,17.07
2019-05-03T01:24:02.281Z,17.10
2019-05-03T01:26:32.070Z,17.08
2019-05-03T01:29:02.713Z,17.13
2019-05-03T01:31:32.473Z,17.16
2019-05-03T01:34:02.424Z,17.10
2019-05-03T01:36:32.238Z,17.39
2019-05-03T01:39:02.192Z,16.68
2019-05-03T01:41:32.417Z,16.74
2019-05-03T01:44:02.148Z,16.61
2019-05-03T01:46:31.902Z,16.52
2019-05-03T01:49:19.063Z,16.10
2019-05-03T01:52:13.558Z,15.98
2019-05-03T01:54:43.999Z,16.18
2019-05-03T01:57:13.714Z,15.87
2019-05-03T01:59:43.423Z,15.81
2019-05-03T02:02:32.530Z,15.78
2019-05-03T02:05:22.505Z,15.15
2019-05-03T02:07:52.341Z,15.31
2019-05-03T02:10:22.643Z,15.37
2019-05-03T02:12:52.369Z,15.30
2019-05-03T02:15:22.234Z,15.14
2019-05-03T02:17:52.111Z,15.30
2019-05-03T02:20:22.028Z,15.33
2019-05-03T02:22:52.227Z,15.51
2019-05-03T02:25:22.021Z,15.57
2019-05-03T02:27:52.713Z,15.59
2019-05-03T02:30:24.948Z,15.71
2019-05-03T02:32:54.111Z,15.68
2019-05-03T02:35:23.852Z,15.78
2019-05-03T02:37:54.633Z,15.82
2019-05-03T02:40:25.081Z,15.94
2019-05-03T02:43:12.314Z,15.86
2019-05-03T02:45:57.202Z,15.90
2019-05-03T02:48:36.234Z,15.75
2019-05-03T02:51:06.639Z,15.70
2019-05-03T02:53:36.638Z,15.54
2019-05-03T02:56:15.048Z,15.36
2019-05-03T02:58:37.643Z,15.13
2019-05-03T03:01:07.555Z,14.71
2019-05-03T03:03:37.980Z,14.57
2019-05-03T03:06:07.860Z,14.40
2019-05-03T03:08:39.201Z,14.24
2019-05-03T03:11:09.690Z,14.44
2019-05-03T03:13:40.329Z,14.50
2019-05-03T03:16:11.331Z,14.50
2019-05-03T03:18:45.360Z,14.48
2019-05-03T03:21:17.303Z,14.58
2019-05-03T03:24:02.403Z,14.70
2019-05-03T03:26:39.272Z,14.84
2019-05-03T03:29:06.285Z,14.79
2019-05-03T03:32:19.360Z,14.88
2019-05-03T03:35:11.293Z,15.14
2019-05-03T03:37:36.670Z,15.04
2019-05-03T03:40:06.462Z,15.16
2019-05-03T03:42:38.071Z,15.20
2019-05-03T03:45:08.231Z,15.11
2019-05-03T03:47:40.746Z,15.04
2019-05-03T03:50:10.769Z,14.71
2019-05-03T03:52:45.161Z,14.68
2019-05-03T03:55:16.112Z,14.47
2019-05-03T03:57:46.976Z,14.38
2019-05-03T04:00:17.313Z,14.35
2019-05-03T04:02:47.124Z,14.55
2019-05-03T04:05:16.781Z,14.43
2019-05-03T04:07:46.633Z,14.70
2019-05-03T04:10:16.788Z,14.79
2019-05-03T04:12:48.218Z,15.12
2019-05-03T04:15:29.791Z,15.42
2019-05-03T04:18:06.706Z,15.55
2019-05-03T04:20:37.609Z,15.72
2019-05-03T04:23:07.768Z,15.91
2019-05-03T04:25:37.786Z,16.04
2019-05-03T04:28:08.434Z,16.07
2019-05-03T04:30:38.039Z,16.29
2019-05-03T04:33:08.108Z,15.97
2019-05-03T04:35:37.791Z,15.82
2019-05-03T04:38:07.680Z,15.58
2019-05-03T04:40:37.468Z,15.93
2019-05-03T04:43:07.219Z,15.73
2019-05-03T04:45:37.254Z,15.68
2019-05-03T04:48:07.393Z,16.00
2019-05-03T04:50:37.747Z,16.01
2019-05-03T04:53:07.434Z,15.71
2019-05-03T04:55:37.146Z,15.82
2019-05-03T04:58:06.891Z,15.70
2019-05-03T05:00:36.529Z,15.89
2019-05-03T05:03:06.402Z,15.46
2019-05-03T05:05:36.598Z,15.18
2019-05-03T05:08:07.031Z,15.35
2019-05-03T05:10:36.835Z,15.25
2019-05-03T05:13:06.570Z,15.22
2019-05-03T05:15:36.164Z,15.47
2019-05-03T05:18:26.174Z,15.59
2019-05-03T05:21:06.068Z,15.70
2019-05-03T05:23:35.701Z,15.60
2019-05-03T05:26:14.518Z,15.87
2019-05-03T05:28:57.242Z,15.75
2019-05-03T05:31:26.978Z,16.04
2019-05-03T05:33:56.730Z,16.00
2019-05-03T05:36:26.329Z,16.08
2019-05-03T05:38:55.974Z,16.19
2019-05-03T05:41:25.611Z,16.35
2019-05-03T05:43:55.242Z,16.44
2019-05-03T05:46:27.240Z,16.53
2019-05-03T05:48:56.972Z,16.65
2019-05-03T05:51:26.634Z,17.27
2019-05-03T05:53:56.250Z,17.14
2019-05-03T05:56:49.677Z,17.44
2019-05-03T05:59:27.163Z,17.72
2019-05-03T06:02:00.559Z,17.73
2019-05-03T06:04:30.269Z,17.95
2019-05-03T06:07:18.791Z,18.43
2019-05-03T06:10:05.380Z,18.34
2019-05-03T06:12:48.847Z,17.95
2019-05-03T06:15:37.439Z,18.07
2019-05-03T06:18:14.558Z,18.41
2019-05-03T06:20:57.497Z,18.29
2019-05-03T06:23:31.465Z,18.45
2019-05-03T06:26:01.122Z,18.40
2019-05-03T06:28:35.085Z,18.40
2019-05-03T06:31:19.565Z,18.51
2019-05-03T06:33:48.445Z,18.73
2019-05-03T06:36:18.040Z,19.24
2019-05-03T06:38:47.692Z,19.15
2019-05-03T06:41:17.286Z,19.42
2019-05-03T06:43:48.751Z,19.15
2019-05-03T06:46:23.490Z,19.32
2019-05-03T06:48:51.272Z,19.89
2019-05-03T06:51:20.935Z,19.49
2019-05-03T06:53:50.776Z,19.90
2019-05-03T06:56:25.176Z,19.81
2019-05-03T06:58:51.924Z,19.78
2019-05-03T07:01:28.202Z,20.12
2019-05-03T07:04:16.719Z,19.92
2019-05-03T07:07:08.288Z,20.25
2019-05-03T07:09:51.276Z,20.58
2019-05-03T07:12:20.936Z,20.89
2019-05-03T07:14:50.636Z,21.05
2019-05-03T07:17:20.243Z,20.97
2019-05-03T07:19:49.968Z,20.95
2019-05-03T07:22:19.601Z,21.10
2019-05-03T07:24:49.183Z,21.55
2019-05-03T07:27:18.788Z,21.28
2019-05-03T07:29:48.426Z,21.00
2019-05-03T07:32:18.097Z,20.76
2019-05-03T07:34:47.986Z,21.13
2019-05-03T07:37:17.693Z,21.87
2019-05-03T07:39:47.294Z,21.75
2019-05-03T07:42:16.875Z,21.56
2019-05-03T07:44:46.437Z,22.04
2019-05-03T07:47:16.104Z,22.20
2019-05-03T07:49:45.670Z,22.14
2019-05-03T07:52:15.286Z,22.06
2019-05-03T07:54:45.265Z,22.18
2019-05-03T07:57:41.642Z,22.66
2019-05-03T08:00:16.111Z,22.65
2019-05-03T08:02:45.733Z,22.35
2019-05-03T08:05:15.877Z,22.64
2019-05-03T08:07:46.288Z,23.12
2019-05-03T08:10:16.332Z,22.72
2019-05-03T08:12:45.931Z,22.81
2019-05-03T08:15:15.807Z,22.96
2019-05-03T08:17:45.452Z,22.80
2019-05-03T08:20:15.342Z,22.66
2019-05-03T08:22:44.913Z,22.92
2019-05-03T08:25:14.722Z,22.68
2019-05-03T08:27:44.650Z,22.92
2019-05-03T08:30:19.834Z,22.67
2019-05-03T08:32:57.188Z,22.88
2019-05-03T08:35:31.926Z,22.80
2019-05-03T08:38:02.183Z,23.17
2019-05-03T08:40:36.123Z,23.29
2019-05-03T08:43:05.924Z,23.81
2019-05-03T08:45:35.752Z,23.31
2019-05-03T08:48:05.697Z,23.74
2019-05-03T08:50:35.437Z,23.16
2019-05-03T08:53:05.332Z,23.34
2019-05-03T08:55:35.372Z,23.41
2019-05-03T08:58:05.390Z,24.10
2019-05-03T09:00:37.071Z,24.03
2019-05-03T09:03:06.814Z,23.71
2019-05-03T09:05:36.486Z,23.60
2019-05-03T09:08:06.827Z,24.24
2019-05-03T09:10:42.659Z,24.07
2019-05-03T09:13:14.725Z,24.36
2019-05-03T09:15:45.117Z,24.82
2019-05-03T09:18:27.694Z,25.31
2019-05-03T09:20:47.551Z,25.56
2019-05-03T09:23:17.313Z,25.44
2019-05-03T09:25:46.999Z,25.42
2019-05-03T09:28:16.750Z,25.37
2019-05-03T09:30:46.539Z,25.63
2019-05-03T09:33:16.222Z,24.95
2019-05-03T09:35:45.940Z,25.43
2019-05-03T09:38:15.651Z,25.42
2019-05-03T09:40:45.622Z,25.68
2019-05-03T09:43:15.340Z,25.86
2019-05-03T09:45:45.689Z,25.76
2019-05-03T09:48:15.502Z,25.52
2019-05-03T09:50:45.413Z,25.82
2019-05-03T09:53:17.153Z,26.01
2019-05-03T09:55:46.768Z,26.47
2019-05-03T09:58:16.340Z,25.39
2019-05-03T10:00:46.927Z,26.07
2019-05-03T10:03:16.564Z,25.98
2019-05-03T10:05:46.276Z,25.73
2019-05-03T10:08:15.995Z,26.15
2019-05-03T10:11:05.499Z,26.48
2019-05-03T10:13:35.554Z,26.50
2019-05-03T10:16:06.732Z,26.50
2019-05-03T10:18:36.849Z,26.35
2019-05-03T10:21:06.616Z,26.12
2019-05-03T10:23:39.962Z,26.19
2019-05-03T10:26:10.438Z,26.25
2019-05-03T10:28:40.668Z,26.10
2019-05-03T10:31:10.882Z,26.48
2019-05-03T10:34:01.882Z,26.47
2019-05-03T10:36:31.607Z,27.07
2019-05-03T10:39:01.356Z,27.00
2019-05-03T10:41:30.980Z,26.83
2019-05-03T10:44:00.626Z,26.67
2019-05-03T10:46:30.290Z,26.84
2019-05-03T10:48:59.878Z,27.27
2019-05-03T10:51:31.738Z,27.14
2019-05-03T10:54:01.342Z,27.56
2019-05-03T10:56:55.914Z,26.52
2019-05-03T10:59:25.413Z,26.98
2019-05-03T11:02:22.095Z,27.21
2019-05-03T11:04:51.768Z,27.19
2019-05-03T11:07:21.496Z,27.60
2019-05-03T11:09:52.594Z,27.60
2019-05-03T11:12:22.539Z,28.14
2019-05-03T11:14:52.207Z,28.18
2019-05-03T11:17:21.860Z,28.27
2019-05-03T11:19:51.481Z,28.27
2019-05-03T11:22:21.095Z,28.56
2019-05-03T11:24:50.814Z,28.69
2019-05-03T11:27:25.342Z,28.68
2019-05-03T11:29:55.558Z,28.78
2019-05-03T11:32:40.063Z,28.57
2019-05-03T11:35:41.007Z,28.40
2019-05-03T11:38:18.293Z,28.60
2019-05-03T11:40:47.976Z,28.69
2019-05-03T11:43:19.242Z,28.52
2019-05-03T11:45:48.849Z,28.78
2019-05-03T11:48:19.154Z,29.41
2019-05-03T11:50:48.792Z,28.94
2019-05-03T11:53:18.498Z,29.01
2019-05-03T11:55:48.111Z,28.53
2019-05-03T11:58:22.455Z,28.78
2019-05-03T12:01:20.132Z,29.11
2019-05-03T12:03:55.536Z,29.13
2019-05-03T12:06:25.182Z,28.69
2019-05-03T12:08:55.527Z,27.98
2019-05-03T12:11:26.130Z,28.40
2019-05-03T12:14:20.584Z,28.50
2019-05-03T12:17:14.472Z,28.89
2019-05-03T12:19:31.065Z,28.83
2019-05-03T12:21:59.134Z,29.24
2019-05-03T12:24:29.795Z,28.32
2019-05-03T12:26:59.974Z,29.00
2019-05-03T12:29:29.721Z,28.30
2019-05-03T12:31:59.313Z,27.88
2019-05-03T12:34:28.924Z,28.44
2019-05-03T12:36:58.490Z,28.19
2019-05-03T12:39:30.532Z,28.24
2019-05-03T12:41:59.514Z,28.14
2019-05-03T12:44:29.078Z,29.20
2019-05-03T12:46:58.697Z,29.57
2019-05-03T12:49:28.388Z,28.98
2019-05-03T12:51:58.112Z,28.87
2019-05-03T12:54:27.698Z,28.88
2019-05-03T12:56:57.321Z,29.02
2019-05-03T12:59:45.773Z,29.23
2019-05-03T13:02:29.952Z,29.27
2019-05-03T13:05:04.876Z,29.83
2019-05-03T13:07:45.643Z,29.30
2019-05-03T13:10:21.647Z,28.63
2019-05-03T13:12:52.474Z,28.57
2019-05-03T13:15:19.950Z,28.65
2019-05-03T13:17:49.565Z,29.27
2019-05-03T13:20:19.827Z,28.84
2019-05-03T13:22:49.455Z,28.38
2019-05-03T13:25:19.187Z,28.84
2019-05-03T13:27:48.812Z,28.90
2019-05-03T13:30:18.559Z,27.61
2019-05-03T13:32:48.798Z,28.65
2019-05-03T13:35:19.410Z,29.13
2019-05-03T13:37:50.022Z,28.59
2019-05-03T13:40:19.752Z,28.60
2019-05-03T13:42:57.165Z,29.77
2019-05-03T13:45:20.903Z,29.06
2019-05-03T13:47:50.690Z,28.52
2019-05-03T13:50:20.398Z,28.72
2019-05-03T13:52:50.073Z,28.70
2019-05-03T13:55:21.230Z,28.30
2019-05-03T13:57:50.857Z,28.11
2019-05-03T14:00:24.676Z,28.84
2019-05-03T14:02:56.361Z,27.97
2019-05-03T14:05:26.120Z,27.95
2019-05-03T14:07:56.350Z,27.72
2019-05-03T14:10:26.186Z,27.80
2019-05-03T14:12:55.921Z,27.66
2019-05-03T14:15:25.791Z,27.71
2019-05-03T14:17:55.622Z,27.99
2019-05-03T14:20:50.131Z,27.94
2019-05-03T14:23:19.847Z,27.82
2019-05-03T14:25:49.514Z,27.88
2019-05-03T14:28:19.246Z,27.23
2019-05-03T14:30:48.882Z,26.97
2019-05-03T14:33:18.536Z,26.83
2019-05-03T14:35:48.236Z,26.65
2019-05-03T14:38:17.934Z,26.74
2019-05-03T14:40:47.554Z,26.80
2019-05-03T14:43:17.197Z,27.54
2019-05-03T14:45:46.947Z,26.96
2019-05-03T14:48:17.139Z,26.72
2019-05-03T14:50:46.820Z,26.75
2019-05-03T14:53:16.433Z,26.85
2019-05-03T14:55:51.328Z,26.83
2019-05-03T14:58:56.981Z,27.28
2019-05-03T15:01:35.600Z,26.68
2019-05-03T15:04:05.915Z,27.14
2019-05-03T15:06:36.299Z,27.37
2019-05-03T15:09:07.894Z,26.72
2019-05-03T15:11:37.513Z,26.37
2019-05-03T15:14:07.140Z,26.27
2019-05-03T15:16:38.441Z,26.22
2019-05-03T15:19:08.137Z,26.03
2019-05-03T15:21:37.784Z,25.92
2019-05-03T15:24:08.941Z,25.90
2019-05-03T15:26:39.075Z,25.83
2019-05-03T15:29:08.693Z,25.92
2019-05-03T15:31:38.375Z,25.90
2019-05-03T15:34:09.359Z,25.71
2019-05-03T15:36:38.967Z,26.10
2019-05-03T15:39:09.117Z,26.12
2019-05-03T15:41:38.823Z,26.05
2019-05-03T15:44:19.407Z,25.85
2019-05-03T15:47:11.051Z,25.68
2019-05-03T15:49:40.751Z,25.58
2019-05-03T15:52:10.370Z,25.61
2019-05-03T15:54:40.524Z,25.80
2019-05-03T15:57:10.137Z,25.82
2019-05-03T15:59:39.771Z,26.09
2019-05-03T16:02:10.873Z,25.80
2019-05-03T16:04:40.495Z,25.70
2019-05-03T16:07:10.221Z,26.27
2019-05-03T16:09:39.838Z,25.87
2019-05-03T16:12:09.447Z,25.66
2019-05-03T16:14:39.126Z,25.48
2019-05-03T16:17:08.776Z,25.33
2019-05-03T16:19:38.408Z,25.26
2019-05-03T16:22:08.830Z,25.19
2019-05-03T16:24:38.889Z,25.21
2019-05-03T16:27:36.747Z,25.08
2019-05-03T16:30:25.622Z,24.95
2019-05-03T16:32:55.387Z,24.99
2019-05-03T16:35:25.625Z,25.25
2019-05-03T16:37:55.438Z,25.42
2019-05-03T16:40:26.602Z,25.49
2019-05-03T16:42:56.236Z,25.50
2019-05-03T16:45:26.071Z,25.56
2019-05-03T16:47:56.706Z,25.55
2019-05-03T16:50:26.511Z,25.63
2019-05-03T16:52:56.125Z,25.50
2019-05-03T16:55:25.971Z,25.56
2019-05-03T16:57:55.611Z,25.50
2019-05-03T17:00:25.506Z,25.44
2019-05-03T17:02:56.851Z,25.40
2019-05-03T17:05:45.097Z,25.63
2019-05-03T17:08:21.728Z,25.57
2019-05-03T17:10:52.199Z,25.35
2019-05-03T17:13:21.844Z,25.35
2019-05-03T17:15:51.531Z,25.53
2019-05-03T17:18:21.724Z,25.57
2019-05-03T17:20:51.435Z,25.38
2019-05-03T17:23:21.063Z,25.21
2019-05-03T17:25:50.676Z,25.29
2019-05-03T17:28:20.537Z,25.37
2019-05-03T17:30:50.177Z,25.46
2019-05-03T17:33:19.837Z,25.53
2019-05-03T17:35:49.466Z,25.57
2019-05-03T17:38:19.059Z,25.43
2019-05-03T17:41:11.233Z,25.39
2019-05-03T17:44:02.380Z,25.49
2019-05-03T17:46:32.047Z,25.23
2019-05-03T17:49:02.455Z,24.85
2019-05-03T17:51:45.607Z,24.62
2019-05-03T17:54:33.473Z,24.35
2019-05-03T17:57:19.553Z,24.12
2019-05-03T17:59:55.104Z,24.24
2019-05-03T18:02:35.226Z,24.17
2019-05-03T18:05:25.134Z,24.06
2019-05-03T18:08:13.000Z,24.01
2019-05-03T18:10:45.135Z,23.69
2019-05-03T18:13:15.839Z,23.59
2019-05-03T18:15:45.544Z,23.58
2019-05-03T18:18:15.811Z,23.28
2019-05-03T18:20:46.821Z,22.91
2019-05-03T18:23:17.166Z,23.28
2019-05-03T18:25:47.299Z,23.43
2019-05-03T18:28:17.074Z,23.49
2019-05-03T18:30:46.758Z,23.39
2019-05-03T18:33:16.516Z,23.37
2019-05-03T18:35:48.283Z,23.37
2019-05-03T18:38:18.081Z,23.25
2019-05-03T18:40:48.861Z,23.19
2019-05-03T18:43:27.650Z,23.19
2019-05-03T18:46:17.707Z,23.21
2019-05-03T18:48:47.888Z,23.22
2019-05-03T18:51:17.542Z,23.02
2019-05-03T18:53:47.295Z,23.06
2019-05-03T18:56:18.513Z,22.91
2019-05-03T18:58:48.214Z,22.87
2019-05-03T19:01:18.300Z,22.81
2019-05-03T19:03:51.102Z,22.77
2019-05-03T19:06:20.861Z,23.06
2019-05-03T19:09:08.103Z,22.94
2019-05-03T19:11:46.369Z,22.77
2019-05-03T19:14:17.824Z,22.80
2019-05-03T19:17:05.268Z,22.69
2019-05-03T19:19:38.684Z,22.87
2019-05-03T19:22:08.300Z,22.76
2019-05-03T19:24:37.979Z,22.89
2019-05-03T19:27:09.639Z,23.00
2019-05-03T19:29:40.005Z,22.81
2019-05-03T19:32:10.112Z,22.89
2019-05-03T19:34:50.060Z,22.86
2019-05-03T19:37:11.839Z,22.80
2019-05-03T19:39:41.485Z,22.77
2019-05-03T19:42:11.410Z,22.66
2019-05-03T19:44:45.295Z,22.62
2019-05-03T19:47:15.780Z,22.74
2019-05-03T19:49:46.155Z,22.65
2019-05-03T19:52:18.805Z,22.61
2019-05-03T19:54:48.600Z,22.57
2019-05-03T19:57:20.023Z,22.53
2019-05-03T19:59:51.595Z,22.69
2019-05-03T20:02:39.306Z,22.66
2019-05-03T20:05:31.561Z,22.74
2019-05-03T20:08:18.268Z,22.90
2019-05-03T20:10:48.661Z,22.67
2019-05-03T20:13:31.894Z,22.55
2019-05-03T20:15:52.430Z,22.71
2019-05-03T20:18:22.056Z,22.53
2019-05-03T20:20:51.866Z,22.61
2019-05-03T20:23:21.583Z,22.76
2019-05-03T20:25:51.342Z,22.48
2019-05-03T20:28:21.061Z,22.61
2019-05-03T20:30:51.125Z,22.67
2019-05-03T20:33:21.377Z,22.63
2019-05-03T20:35:54.322Z,22.54
2019-05-03T20:38:24.591Z,23.12
2019-05-03T20:40:57.267Z,23.26
2019-05-03T20:43:41.593Z,23.35
2019-05-03T20:46:15.454Z,23.33
2019-05-03T20:48:47.376Z,22.75
2019-05-03T20:51:17.496Z,22.78
2019-05-03T20:53:47.163Z,22.75
2019-05-03T20:56:16.932Z,23.06
2019-05-03T20:58:47.194Z,23.13
2019-05-03T21:01:16.848Z,23.00
2019-05-03T21:03:46.961Z,22.67
2019-05-03T21:06:16.592Z,22.33
2019-05-03T21:08:52.946Z,21.87
2019-05-03T21:11:19.078Z,21.82
2019-05-03T21:13:50.222Z,21.75
2019-05-03T21:16:39.345Z,21.71
2019-05-03T21:19:24.760Z,21.37
2019-05-03T21:22:01.853Z,21.13
2019-05-03T21:25:00.185Z,20.86
2019-05-03T21:27:30.457Z,20.88
2019-05-03T21:30:01.452Z,20.45
2019-05-03T21:32:31.175Z,20.60
2019-05-03T21:35:00.943Z,20.50
2019-05-03T21:37:31.795Z,20.41
2019-05-03T21:40:01.485Z,20.40
2019-05-03T21:42:31.542Z,20.07
2019-05-03T21:45:01.753Z,20.11
2019-05-03T21:47:41.062Z,20.11
2019-05-03T21:50:14.745Z,19.84
2019-05-03T21:52:45.786Z,19.66
2019-05-03T21:55:16.169Z,19.44
2019-05-03T21:57:45.770Z,19.46
2019-05-03T22:00:16.994Z,19.18
2019-05-03T22:02:47.064Z,18.86
2019-05-03T22:05:17.656Z,19.33
2019-05-03T22:07:47.465Z,19.31
2019-05-03T22:10:17.398Z,19.20
2019-05-03T22:12:47.067Z,19.06
2019-05-03T22:15:32.255Z,19.17
2019-05-03T22:18:12.815Z,18.99
2019-05-03T22:20:50.230Z,18.84
2019-05-03T22:23:37.378Z,18.84
2019-05-03T22:26:07.668Z,18.74
2019-05-03T22:28:37.447Z,18.79
2019-05-03T22:31:08.015Z,18.90
2019-05-03T22:33:37.635Z,18.93
2019-05-03T22:36:08.994Z,19.12
2019-05-03T22:38:39.615Z,19.30
2019-05-03T22:41:09.858Z,19.59
2019-05-03T22:43:39.602Z,19.71
2019-05-03T22:46:09.661Z,19.66
2019-05-03T22:48:40.334Z,19.67
2019-05-03T22:51:10.036Z,19.58
2019-05-03T22:53:39.788Z,19.71
2019-05-03T22:56:09.484Z,19.89
2019-05-03T22:58:39.460Z,19.89
2019-05-03T23:01:10.096Z,19.99
2019-05-03T23:03:44.840Z,20.05
2019-05-03T23:06:21.980Z,20.06
2019-05-03T23:08:46.620Z,20.25
2019-05-03T23:11:16.278Z,20.11
2019-05-03T23:14:01.776Z,20.29
2019-05-03T23:16:35.425Z,20.29
2019-05-03T23:19:05.733Z,20.42
2019-05-03T23:21:50.579Z,20.34
2019-05-03T23:24:20.320Z,20.27
2019-05-03T23:26:50.411Z,20.25
2019-05-03T23:29:20.117Z,20.07
2019-05-03T23:31:50.380Z,20.04
2019-05-03T23:34:24.766Z,20.11
2019-05-03T23:36:55.705Z,20.22
2019-05-03T23:39:25.774Z,20.35
2019-05-03T23:41:56.390Z,19.99
2019-05-03T23:44:25.989Z,19.55
2019-05-03T23:47:09.322Z,19.15
2019-05-03T23:49:39.690Z,19.18
2019-05-03T23:52:26.750Z,19.06
2019-05-03T23:54:58.461Z,18.96
2019-05-03T23:57:28.525Z,19.19
2019-05-03T23:59:58.771Z,19.37
